Terminal Aerodrome Forecast
Issued by NWS Omaha/Valley, NE

Home | Current Version | Previous Version | Text Only | Print | Product List | Glossary Off
Versions: 1 2 3 4 5 6 7 8 9 10 11 12 13 14 15 16 17 18 19 20 21 22 23 24 25 26 27 28 29 30 31

000
FTUS43 KOAX 032320
TAFOFK
TAF
KOFK 032320Z 0400/0424 34015G24KT P6SM SCT250
     FM040300 34011KT P6SM BKN050
     FM040900 32006KT P6SM SCT250
     FM041600 32014G20KT P6SM SCT250
     FM041800 32018KT P6SM SCT250=

USA.gov is the U.S. government's official web portal to all federal, state and local government web resources and services.